createdAt,value
2022-09-15T00:14:57.877Z,99.90
2022-09-15T00:30:02.213Z,99.90
2022-09-15T00:45:07.813Z,99.90
2022-09-15T01:00:17.248Z,99.90
2022-09-15T01:15:24.114Z,99.90
2022-09-15T01:30:31.140Z,99.90
2022-09-15T01:45:38.521Z,99.90
2022-09-15T02:00:48.357Z,99.90
2022-09-15T02:15:57.359Z,99.90
2022-09-15T02:31:03.868Z,99.90
2022-09-15T02:46:08.897Z,99.90
2022-09-15T03:01:15.998Z,99.90
2022-09-15T03:16:20.829Z,99.90
2022-09-15T03:31:25.291Z,99.90
2022-09-15T03:46:29.736Z,99.90
2022-09-15T04:01:34.538Z,99.90
2022-09-15T04:16:39.019Z,99.90
2022-09-15T04:31:43.578Z,99.90
2022-09-15T04:46:48.740Z,99.90
2022-09-15T05:01:55.551Z,99.90
2022-09-15T05:16:59.887Z,99.90
2022-09-15T05:32:04.429Z,99.90
2022-09-15T05:47:08.940Z,99.90
2022-09-15T06:02:13.362Z,99.90
2022-09-15T06:17:18.284Z,99.90
2022-09-15T06:32:22.730Z,99.90
2022-09-15T06:47:33.631Z,99.90
2022-09-15T07:02:38.134Z,99.90
2022-09-15T07:17:42.544Z,99.90
2022-09-15T07:32:46.945Z,99.90
2022-09-15T07:47:51.389Z,99.90
2022-09-15T08:02:56.056Z,99.90
2022-09-15T08:18:00.994Z,99.90
2022-09-15T08:33:05.400Z,99.90
2022-09-15T08:48:15.645Z,99.90
2022-09-15T09:03:48.136Z,99.90
2022-09-15T09:19:06.484Z,99.90
2022-09-15T09:34:21.497Z,99.90
2022-09-15T09:49:28.341Z,99.90
2022-09-15T10:04:32.769Z,99.90
2022-09-15T10:19:45.360Z,99.90
2022-09-15T10:34:49.863Z,99.90
2022-09-15T10:50:06.860Z,99.90
2022-09-15T11:05:25.556Z,99.90
2022-09-15T11:20:53.938Z,99.90
2022-09-15T11:36:03.943Z,99.90
2022-09-15T11:51:08.856Z,99.90
2022-09-15T12:06:18.420Z,99.90
2022-09-15T12:21:31.291Z,99.90
2022-09-15T12:36:42.111Z,99.90
2022-09-15T12:51:50.072Z,99.90
2022-09-15T13:07:34.602Z,99.90
2022-09-15T13:22:44.949Z,99.90
2022-09-15T13:38:31.810Z,99.80
2022-09-15T13:53:44.284Z,99.20
2022-09-15T14:08:51.784Z,99.90
2022-09-15T14:23:57.964Z,99.20
2022-09-15T14:39:19.257Z,92.70
2022-09-15T14:54:32.048Z,76.00
2022-09-15T15:09:41.403Z,75.50
2022-09-15T15:24:49.745Z,84.90
2022-09-15T15:39:55.482Z,76.70
2022-09-15T15:54:59.912Z,71.60
2022-09-15T16:10:04.897Z,70.60
2022-09-15T16:25:15.566Z,72.80
2022-09-15T16:40:19.902Z,82.70
2022-09-15T16:55:32.412Z,87.50
2022-09-15T17:10:37.326Z,94.90
2022-09-15T17:25:48.811Z,95.20
2022-09-15T17:40:55.212Z,96.60
2022-09-15T17:55:59.729Z,97.40
2022-09-15T18:11:04.936Z,96.80
2022-09-15T18:26:09.360Z,96.20
2022-09-15T18:41:13.682Z,93.90
2022-09-15T18:56:18.004Z,93.50
2022-09-15T19:11:22.405Z,94.60
2022-09-15T19:26:29.348Z,93.10
2022-09-15T19:41:33.791Z,93.60
2022-09-15T19:56:38.536Z,93.80
2022-09-15T20:11:43.012Z,92.70
2022-09-15T20:26:47.321Z,93.50
2022-09-15T20:41:51.673Z,94.60
2022-09-15T20:56:56.059Z,94.40
2022-09-15T21:12:01.066Z,94.20
2022-09-15T21:27:23.328Z,94.60
2022-09-15T21:42:28.440Z,94.90
2022-09-15T21:57:32.712Z,94.90
2022-09-15T22:12:37.006Z,95.20
2022-09-15T22:27:41.334Z,94.10
2022-09-15T22:42:46.968Z,94.50
2022-09-15T22:57:51.373Z,94.90
2022-09-15T23:12:55.884Z,95.30
2022-09-15T23:28:00.930Z,95.20
2022-09-15T23:43:05.260Z,95.40
2022-09-15T23:58:09.666Z,97.00
